sensor_id;sensor_type;location;lat;lon;timestamp;P1;durP1;ratioP1;P2;durP2;ratioP2
65469;SDS011;52067;50.710;14.492;2022-08-19T00:01:45;15.52;;;9.35;;
65469;SDS011;52067;50.710;14.492;2022-08-19T00:04:13;14.07;;;9.05;;
65469;SDS011;52067;50.710;14.492;2022-08-19T00:06:40;16.42;;;9.25;;
65469;SDS011;52067;50.710;14.492;2022-08-19T00:09:09;16.50;;;9.35;;
65469;SDS011;52067;50.710;14.492;2022-08-19T00:11:35;15.25;;;9.30;;
65469;SDS011;52067;50.710;14.492;2022-08-19T00:14:02;14.55;;;9.75;;
65469;SDS011;52067;50.710;14.492;2022-08-19T00:16:29;13.18;;;9.25;;
65469;SDS011;52067;50.710;14.492;2022-08-19T00:18:54;13.82;;;9.45;;
65469;SDS011;52067;50.710;14.492;2022-08-19T00:21:20;14.02;;;8.73;;
65469;SDS011;52067;50.710;14.492;2022-08-19T00:23:47;12.98;;;9.40;;
65469;SDS011;52067;50.710;14.492;2022-08-19T00:26:13;11.38;;;9.10;;
65469;SDS011;52067;50.710;14.492;2022-08-19T00:28:39;13.68;;;10.05;;
65469;SDS011;52067;50.710;14.492;2022-08-19T00:31:06;14.38;;;9.65;;
65469;SDS011;52067;50.710;14.492;2022-08-19T00:33:32;16.35;;;9.38;;
65469;SDS011;52067;50.710;14.492;2022-08-19T00:35:59;12.05;;;9.50;;
65469;SDS011;52067;50.710;14.492;2022-08-19T00:38:25;17.30;;;10.05;;
65469;SDS011;52067;50.710;14.492;2022-08-19T00:40:51;12.95;;;10.02;;
65469;SDS011;52067;50.710;14.492;2022-08-19T00:43:21;14.18;;;9.77;;
65469;SDS011;52067;50.710;14.492;2022-08-19T00:45:48;12.05;;;9.82;;
65469;SDS011;52067;50.710;14.492;2022-08-19T00:48:15;12.43;;;9.52;;
65469;SDS011;52067;50.710;14.492;2022-08-19T00:50:42;16.17;;;10.35;;
65469;SDS011;52067;50.710;14.492;2022-08-19T00:53:09;18.20;;;10.18;;
65469;SDS011;52067;50.710;14.492;2022-08-19T00:55:40;18.45;;;10.73;;
65469;SDS011;52067;50.710;14.492;2022-08-19T00:58:10;18.40;;;10.63;;
65469;SDS011;52067;50.710;14.492;2022-08-19T01:00:38;16.67;;;10.75;;
65469;SDS011;52067;50.710;14.492;2022-08-19T01:03:08;16.05;;;10.90;;
65469;SDS011;52067;50.710;14.492;2022-08-19T01:05:36;15.73;;;10.23;;
65469;SDS011;52067;50.710;14.492;2022-08-19T01:08:03;14.10;;;10.55;;
65469;SDS011;52067;50.710;14.492;2022-08-19T01:10:31;16.77;;;10.63;;
65469;SDS011;52067;50.710;14.492;2022-08-19T01:13:01;13.85;;;10.35;;
65469;SDS011;52067;50.710;14.492;2022-08-19T01:15:29;14.68;;;10.65;;
65469;SDS011;52067;50.710;14.492;2022-08-19T01:17:59;17.13;;;11.27;;
65469;SDS011;52067;50.710;14.492;2022-08-19T01:20:29;14.48;;;10.43;;
65469;SDS011;52067;50.710;14.492;2022-08-19T01:22:55;14.13;;;10.90;;
65469;SDS011;52067;50.710;14.492;2022-08-19T01:25:26;14.80;;;11.45;;
65469;SDS011;52067;50.710;14.492;2022-08-19T01:27:55;13.77;;;11.35;;
65469;SDS011;52067;50.710;14.492;2022-08-19T01:30:22;13.40;;;10.55;;
65469;SDS011;52067;50.710;14.492;2022-08-19T01:32:51;15.77;;;10.88;;
65469;SDS011;52067;50.710;14.492;2022-08-19T01:35:18;15.10;;;11.18;;
65469;SDS011;52067;50.710;14.492;2022-08-19T01:37:52;18.02;;;11.32;;
65469;SDS011;52067;50.710;14.492;2022-08-19T01:40:27;18.90;;;12.02;;
65469;SDS011;52067;50.710;14.492;2022-08-19T01:42:54;15.60;;;11.82;;
65469;SDS011;52067;50.710;14.492;2022-08-19T01:45:21;16.30;;;11.88;;
65469;SDS011;52067;50.710;14.492;2022-08-19T01:47:48;22.65;;;12.48;;
65469;SDS011;52067;50.710;14.492;2022-08-19T01:50:14;18.65;;;11.88;;
65469;SDS011;52067;50.710;14.492;2022-08-19T01:52:40;15.65;;;12.10;;
65469;SDS011;52067;50.710;14.492;2022-08-19T01:55:08;20.50;;;12.00;;
65469;SDS011;52067;50.710;14.492;2022-08-19T01:57:37;16.85;;;11.52;;
65469;SDS011;52067;50.710;14.492;2022-08-19T02:00:07;14.93;;;11.00;;
65469;SDS011;52067;50.710;14.492;2022-08-19T02:02:35;17.48;;;11.77;;
65469;SDS011;52067;50.710;14.492;2022-08-19T02:05:00;14.82;;;11.40;;
65469;SDS011;52067;50.710;14.492;2022-08-19T02:07:25;16.25;;;12.23;;
65469;SDS011;52067;50.710;14.492;2022-08-19T02:09:53;16.85;;;11.70;;
65469;SDS011;52067;50.710;14.492;2022-08-19T02:12:19;16.35;;;11.60;;
65469;SDS011;52067;50.710;14.492;2022-08-19T02:14:45;17.25;;;11.23;;
65469;SDS011;52067;50.710;14.492;2022-08-19T02:17:11;15.70;;;12.13;;
65469;SDS011;52067;50.710;14.492;2022-08-19T02:19:36;20.52;;;12.98;;
65469;SDS011;52067;50.710;14.492;2022-08-19T02:22:02;21.80;;;13.02;;
65469;SDS011;52067;50.710;14.492;2022-08-19T02:24:27;17.90;;;12.93;;
65469;SDS011;52067;50.710;14.492;2022-08-19T02:26:53;20.15;;;14.00;;
65469;SDS011;52067;50.710;14.492;2022-08-19T02:29:19;17.58;;;13.40;;
65469;SDS011;52067;50.710;14.492;2022-08-19T02:31:44;22.35;;;13.48;;
65469;SDS011;52067;50.710;14.492;2022-08-19T02:34:10;17.17;;;13.80;;
65469;SDS011;52067;50.710;14.492;2022-08-19T02:36:35;21.25;;;14.55;;
65469;SDS011;52067;50.710;14.492;2022-08-19T02:39:01;19.38;;;14.68;;
65469;SDS011;52067;50.710;14.492;2022-08-19T02:41:30;21.08;;;15.43;;
65469;SDS011;52067;50.710;14.492;2022-08-19T02:43:58;20.45;;;14.48;;
65469;SDS011;52067;50.710;14.492;2022-08-19T02:46:27;24.08;;;15.15;;
65469;SDS011;52067;50.710;14.492;2022-08-19T02:48:54;21.60;;;14.82;;
65469;SDS011;52067;50.710;14.492;2022-08-19T02:51:25;27.08;;;16.15;;
65469;SDS011;52067;50.710;14.492;2022-08-19T02:53:56;20.23;;;15.50;;
65469;SDS011;52067;50.710;14.492;2022-08-19T02:56:22;19.00;;;14.93;;
65469;SDS011;52067;50.710;14.492;2022-08-19T02:58:49;20.73;;;15.57;;
65469;SDS011;52067;50.710;14.492;2022-08-19T03:01:23;22.45;;;15.80;;
65469;SDS011;52067;50.710;14.492;2022-08-19T03:03:51;23.00;;;16.15;;
65469;SDS011;52067;50.710;14.492;2022-08-19T03:06:17;26.25;;;16.38;;
65469;SDS011;52067;50.710;14.492;2022-08-19T03:08:43;21.77;;;15.73;;
65469;SDS011;52067;50.710;14.492;2022-08-19T03:11:22;22.58;;;16.35;;
65469;SDS011;52067;50.710;14.492;2022-08-19T03:13:49;21.48;;;15.82;;
65469;SDS011;52067;50.710;14.492;2022-08-19T03:16:16;21.00;;;15.35;;
65469;SDS011;52067;50.710;14.492;2022-08-19T03:18:45;21.17;;;16.00;;
65469;SDS011;52067;50.710;14.492;2022-08-19T03:21:14;23.70;;;16.75;;
65469;SDS011;52067;50.710;14.492;2022-08-19T03:23:45;25.48;;;15.27;;
65469;SDS011;52067;50.710;14.492;2022-08-19T03:26:10;19.38;;;15.07;;
65469;SDS011;52067;50.710;14.492;2022-08-19T03:28:36;24.30;;;15.50;;
65469;SDS011;52067;50.710;14.492;2022-08-19T03:33:27;22.52;;;16.00;;
65469;SDS011;52067;50.710;14.492;2022-08-19T03:36:27;22.10;;;16.25;;
65469;SDS011;52067;50.710;14.492;2022-08-19T03:38:49;23.58;;;15.32;;
65469;SDS011;52067;50.710;14.492;2022-08-19T03:41:17;26.52;;;16.23;;
65469;SDS011;52067;50.710;14.492;2022-08-19T03:43:45;20.45;;;14.77;;
65469;SDS011;52067;50.710;14.492;2022-08-19T03:46:18;19.88;;;14.60;;
65469;SDS011;52067;50.710;14.492;2022-08-19T03:48:46;21.95;;;15.27;;
65469;SDS011;52067;50.710;14.492;2022-08-19T03:51:17;20.05;;;15.05;;
65469;SDS011;52067;50.710;14.492;2022-08-19T03:53:44;21.08;;;15.35;;
65469;SDS011;52067;50.710;14.492;2022-08-19T03:56:11;23.85;;;15.07;;
65469;SDS011;52067;50.710;14.492;2022-08-19T03:58:37;18.83;;;14.73;;
65469;SDS011;52067;50.710;14.492;2022-08-19T04:01:07;22.17;;;15.48;;
65469;SDS011;52067;50.710;14.492;2022-08-19T04:03:38;22.73;;;14.73;;
65469;SDS011;52067;50.710;14.492;2022-08-19T04:06:14;19.45;;;14.80;;
65469;SDS011;52067;50.710;14.492;2022-08-19T04:08:43;25.38;;;15.55;;
65469;SDS011;52067;50.710;14.492;2022-08-19T04:11:13;23.05;;;15.23;;
65469;SDS011;52067;50.710;14.492;2022-08-19T04:13:41;22.92;;;15.90;;
65469;SDS011;52067;50.710;14.492;2022-08-19T04:16:09;23.92;;;16.40;;
65469;SDS011;52067;50.710;14.492;2022-08-19T04:18:35;28.17;;;17.08;;
65469;SDS011;52067;50.710;14.492;2022-08-19T04:21:02;24.00;;;16.08;;
65469;SDS011;52067;50.710;14.492;2022-08-19T04:23:28;24.65;;;17.17;;
65469;SDS011;52067;50.710;14.492;2022-08-19T04:25:54;27.63;;;18.50;;
65469;SDS011;52067;50.710;14.492;2022-08-19T04:28:20;26.63;;;16.73;;
65469;SDS011;52067;50.710;14.492;2022-08-19T04:30:46;27.83;;;18.73;;
65469;SDS011;52067;50.710;14.492;2022-08-19T04:33:14;24.20;;;17.90;;
65469;SDS011;52067;50.710;14.492;2022-08-19T04:35:46;26.13;;;17.30;;
65469;SDS011;52067;50.710;14.492;2022-08-19T04:38:13;25.63;;;17.95;;
65469;SDS011;52067;50.710;14.492;2022-08-19T04:40:43;28.58;;;17.88;;
65469;SDS011;52067;50.710;14.492;2022-08-19T04:43:30;25.77;;;17.83;;
65469;SDS011;52067;50.710;14.492;2022-08-19T04:45:56;24.98;;;17.02;;
65469;SDS011;52067;50.710;14.492;2022-08-19T04:48:22;26.05;;;17.90;;
65469;SDS011;52067;50.710;14.492;2022-08-19T04:50:55;26.73;;;17.85;;
65469;SDS011;52067;50.710;14.492;2022-08-19T04:53:25;26.08;;;17.10;;
65469;SDS011;52067;50.710;14.492;2022-08-19T04:55:53;25.50;;;17.77;;
65469;SDS011;52067;50.710;14.492;2022-08-19T04:58:24;25.45;;;16.98;;
65469;SDS011;52067;50.710;14.492;2022-08-19T05:00:50;24.70;;;17.63;;
65469;SDS011;52067;50.710;14.492;2022-08-19T05:03:16;21.98;;;15.63;;
65469;SDS011;52067;50.710;14.492;2022-08-19T05:05:42;24.88;;;16.63;;
65469;SDS011;52067;50.710;14.492;2022-08-19T05:08:09;23.83;;;17.10;;
65469;SDS011;52067;50.710;14.492;2022-08-19T05:10:36;23.63;;;17.00;;
65469;SDS011;52067;50.710;14.492;2022-08-19T05:13:03;26.27;;;17.63;;
65469;SDS011;52067;50.710;14.492;2022-08-19T05:15:28;25.73;;;17.67;;
65469;SDS011;52067;50.710;14.492;2022-08-19T05:17:54;26.30;;;17.48;;
65469;SDS011;52067;50.710;14.492;2022-08-19T05:20:38;24.27;;;16.63;;
65469;SDS011;52067;50.710;14.492;2022-08-19T05:23:22;23.85;;;16.73;;
65469;SDS011;52067;50.710;14.492;2022-08-19T05:25:48;24.02;;;17.63;;
65469;SDS011;52067;50.710;14.492;2022-08-19T05:28:15;24.85;;;16.95;;
65469;SDS011;52067;50.710;14.492;2022-08-19T05:30:41;25.20;;;16.85;;
65469;SDS011;52067;50.710;14.492;2022-08-19T05:33:08;25.13;;;17.45;;
65469;SDS011;52067;50.710;14.492;2022-08-19T05:35:35;26.77;;;17.70;;
65469;SDS011;52067;50.710;14.492;2022-08-19T05:38:02;23.77;;;17.17;;
65469;SDS011;52067;50.710;14.492;2022-08-19T05:40:28;23.65;;;16.17;;
65469;SDS011;52067;50.710;14.492;2022-08-19T05:42:53;24.27;;;17.15;;
65469;SDS011;52067;50.710;14.492;2022-08-19T05:45:19;22.95;;;16.08;;
65469;SDS011;52067;50.710;14.492;2022-08-19T05:47:46;24.15;;;16.45;;
65469;SDS011;52067;50.710;14.492;2022-08-19T05:50:12;21.20;;;15.25;;
65469;SDS011;52067;50.710;14.492;2022-08-19T05:52:38;21.05;;;15.75;;
65469;SDS011;52067;50.710;14.492;2022-08-19T05:55:04;22.38;;;16.02;;
65469;SDS011;52067;50.710;14.492;2022-08-19T05:57:30;27.30;;;16.60;;
65469;SDS011;52067;50.710;14.492;2022-08-19T05:59:56;19.55;;;15.18;;
65469;SDS011;52067;50.710;14.492;2022-08-19T06:02:25;20.95;;;15.35;;
65469;SDS011;52067;50.710;14.492;2022-08-19T06:04:52;24.73;;;15.98;;
65469;SDS011;52067;50.710;14.492;2022-08-19T06:07:17;23.63;;;16.08;;
65469;SDS011;52067;50.710;14.492;2022-08-19T06:09:42;24.42;;;17.25;;
65469;SDS011;52067;50.710;14.492;2022-08-19T06:12:08;22.08;;;15.43;;
65469;SDS011;52067;50.710;14.492;2022-08-19T06:14:34;22.00;;;16.73;;
65469;SDS011;52067;50.710;14.492;2022-08-19T06:17:00;22.73;;;16.33;;
65469;SDS011;52067;50.710;14.492;2022-08-19T06:19:27;21.52;;;15.75;;
65469;SDS011;52067;50.710;14.492;2022-08-19T06:21:55;20.60;;;15.68;;
65469;SDS011;52067;50.710;14.492;2022-08-19T06:24:22;22.15;;;16.08;;
65469;SDS011;52067;50.710;14.492;2022-08-19T06:26:51;22.42;;;15.68;;
65469;SDS011;52067;50.710;14.492;2022-08-19T06:29:18;21.98;;;15.93;;
65469;SDS011;52067;50.710;14.492;2022-08-19T06:31:47;22.90;;;15.48;;
65469;SDS011;52067;50.710;14.492;2022-08-19T06:34:17;21.10;;;14.95;;
65469;SDS011;52067;50.710;14.492;2022-08-19T06:36:45;22.95;;;16.60;;
65469;SDS011;52067;50.710;14.492;2022-08-19T06:39:14;24.52;;;15.98;;
65469;SDS011;52067;50.710;14.492;2022-08-19T06:41:43;21.50;;;16.27;;
65469;SDS011;52067;50.710;14.492;2022-08-19T06:44:10;24.15;;;16.48;;
65469;SDS011;52067;50.710;14.492;2022-08-19T06:46:37;24.23;;;15.52;;
65469;SDS011;52067;50.710;14.492;2022-08-19T06:49:03;22.70;;;14.85;;
65469;SDS011;52067;50.710;14.492;2022-08-19T06:51:29;22.90;;;15.82;;
65469;SDS011;52067;50.710;14.492;2022-08-19T06:53:56;22.00;;;14.82;;
65469;SDS011;52067;50.710;14.492;2022-08-19T06:56:23;22.45;;;14.95;;
65469;SDS011;52067;50.710;14.492;2022-08-19T06:58:56;20.77;;;14.38;;
65469;SDS011;52067;50.710;14.492;2022-08-19T07:01:21;23.48;;;15.13;;
65469;SDS011;52067;50.710;14.492;2022-08-19T07:03:47;21.48;;;14.48;;
65469;SDS011;52067;50.710;14.492;2022-08-19T07:06:15;23.52;;;14.43;;
65469;SDS011;52067;50.710;14.492;2022-08-19T07:08:42;19.30;;;13.85;;
65469;SDS011;52067;50.710;14.492;2022-08-19T07:11:10;19.65;;;14.07;;
65469;SDS011;52067;50.710;14.492;2022-08-19T07:13:38;19.00;;;14.00;;
65469;SDS011;52067;50.710;14.492;2022-08-19T07:16:07;20.23;;;14.10;;
65469;SDS011;52067;50.710;14.492;2022-08-19T07:18:35;21.08;;;13.93;;
65469;SDS011;52067;50.710;14.492;2022-08-19T07:23:31;17.75;;;14.10;;
65469;SDS011;52067;50.710;14.492;2022-08-19T07:25:57;21.23;;;14.02;;
65469;SDS011;52067;50.710;14.492;2022-08-19T07:28:22;20.77;;;14.90;;
65469;SDS011;52067;50.710;14.492;2022-08-19T07:30:48;22.15;;;14.77;;
65469;SDS011;52067;50.710;14.492;2022-08-19T07:33:14;20.40;;;13.80;;
65469;SDS011;52067;50.710;14.492;2022-08-19T07:35:40;19.90;;;14.65;;
65469;SDS011;52067;50.710;14.492;2022-08-19T07:38:05;18.90;;;14.00;;
65469;SDS011;52067;50.710;14.492;2022-08-19T07:40:31;19.17;;;14.52;;
65469;SDS011;52067;50.710;14.492;2022-08-19T07:42:56;18.08;;;13.50;;
65469;SDS011;52067;50.710;14.492;2022-08-19T07:45:22;19.75;;;13.48;;
65469;SDS011;52067;50.710;14.492;2022-08-19T07:47:48;19.73;;;14.25;;
65469;SDS011;52067;50.710;14.492;2022-08-19T07:50:15;22.73;;;14.38;;
65469;SDS011;52067;50.710;14.492;2022-08-19T07:52:41;20.30;;;14.25;;
65469;SDS011;52067;50.710;14.492;2022-08-19T07:55:09;17.17;;;13.57;;
65469;SDS011;52067;50.710;14.492;2022-08-19T07:57:36;17.00;;;13.05;;
65469;SDS011;52067;50.710;14.492;2022-08-19T08:00:02;18.58;;;13.77;;
65469;SDS011;52067;50.710;14.492;2022-08-19T08:02:29;20.05;;;14.07;;
65469;SDS011;52067;50.710;14.492;2022-08-19T08:04:54;17.40;;;13.40;;
65469;SDS011;52067;50.710;14.492;2022-08-19T08:07:38;21.48;;;14.07;;
65469;SDS011;52067;50.710;14.492;2022-08-19T08:10:22;18.00;;;14.13;;
65469;SDS011;52067;50.710;14.492;2022-08-19T08:12:47;21.95;;;13.00;;
65469;SDS011;52067;50.710;14.492;2022-08-19T08:15:15;19.35;;;13.45;;
65469;SDS011;52067;50.710;14.492;2022-08-19T08:17:43;19.92;;;13.45;;
65469;SDS011;52067;50.710;14.492;2022-08-19T08:20:09;16.65;;;12.90;;
65469;SDS011;52067;50.710;14.492;2022-08-19T08:22:35;25.27;;;13.07;;
65469;SDS011;52067;50.710;14.492;2022-08-19T08:25:20;21.25;;;12.90;;
65469;SDS011;52067;50.710;14.492;2022-08-19T08:27:49;17.42;;;12.63;;
65469;SDS011;52067;50.710;14.492;2022-08-19T08:30:16;15.25;;;12.35;;
65469;SDS011;52067;50.710;14.492;2022-08-19T08:32:46;20.23;;;13.20;;
65469;SDS011;52067;50.710;14.492;2022-08-19T08:35:14;16.63;;;12.77;;
65469;SDS011;52067;50.710;14.492;2022-08-19T08:37:41;15.27;;;11.80;;
65469;SDS011;52067;50.710;14.492;2022-08-19T08:43:26;16.33;;;12.25;;
65469;SDS011;52067;50.710;14.492;2022-08-19T08:45:55;17.83;;;13.02;;
65469;SDS011;52067;50.710;14.492;2022-08-19T08:51:14;16.88;;;12.43;;
65469;SDS011;52067;50.710;14.492;2022-08-19T08:53:47;16.88;;;12.60;;
65469;SDS011;52067;50.710;14.492;2022-08-19T08:56:15;19.33;;;12.55;;
65469;SDS011;52067;50.710;14.492;2022-08-19T08:58:49;16.77;;;11.73;;
65469;SDS011;52067;50.710;14.492;2022-08-19T09:01:21;16.58;;;12.23;;
65469;SDS011;52067;50.710;14.492;2022-08-19T09:03:47;14.55;;;11.55;;
65469;SDS011;52067;50.710;14.492;2022-08-19T09:09:17;13.00;;;9.27;;
65469;SDS011;52067;50.710;14.492;2022-08-19T09:16:59;7.68;;;5.80;;
65469;SDS011;52067;50.710;14.492;2022-08-19T09:19:28;8.88;;;6.40;;
65469;SDS011;52067;50.710;14.492;2022-08-19T09:21:54;8.43;;;6.18;;
65469;SDS011;52067;50.710;14.492;2022-08-19T09:24:20;8.32;;;6.35;;
65469;SDS011;52067;50.710;14.492;2022-08-19T09:26:45;7.88;;;5.70;;
65469;SDS011;52067;50.710;14.492;2022-08-19T09:29:11;7.28;;;5.75;;
65469;SDS011;52067;50.710;14.492;2022-08-19T09:31:37;7.88;;;5.55;;
65469;SDS011;52067;50.710;14.492;2022-08-19T09:34:03;6.75;;;5.63;;
65469;SDS011;52067;50.710;14.492;2022-08-19T09:36:31;7.20;;;5.35;;
65469;SDS011;52067;50.710;14.492;2022-08-19T09:39:02;8.57;;;5.53;;
65469;SDS011;52067;50.710;14.492;2022-08-19T09:41:29;6.78;;;5.30;;
65469;SDS011;52067;50.710;14.492;2022-08-19T09:43:54;7.97;;;5.00;;
65469;SDS011;52067;50.710;14.492;2022-08-19T09:46:21;6.75;;;4.60;;
65469;SDS011;52067;50.710;14.492;2022-08-19T09:48:51;5.47;;;4.28;;
65469;SDS011;52067;50.710;14.492;2022-08-19T09:51:18;6.30;;;4.80;;
65469;SDS011;52067;50.710;14.492;2022-08-19T09:53:49;8.38;;;4.70;;
65469;SDS011;52067;50.710;14.492;2022-08-19T09:56:16;6.53;;;5.30;;
65469;SDS011;52067;50.710;14.492;2022-08-19T09:58:43;6.57;;;4.80;;
65469;SDS011;52067;50.710;14.492;2022-08-19T10:01:14;7.63;;;4.65;;
65469;SDS011;52067;50.710;14.492;2022-08-19T10:03:46;7.43;;;5.28;;
65469;SDS011;52067;50.710;14.492;2022-08-19T10:06:12;8.63;;;5.00;;
65469;SDS011;52067;50.710;14.492;2022-08-19T10:08:38;7.55;;;5.40;;
65469;SDS011;52067;50.710;14.492;2022-08-19T10:11:04;5.82;;;5.15;;
65469;SDS011;52067;50.710;14.492;2022-08-19T10:13:31;6.70;;;5.60;;
65469;SDS011;52067;50.710;14.492;2022-08-19T10:16:04;7.38;;;5.57;;
65469;SDS011;52067;50.710;14.492;2022-08-19T10:18:32;7.55;;;5.85;;
65469;SDS011;52067;50.710;14.492;2022-08-19T10:21:03;8.38;;;5.90;;
65469;SDS011;52067;50.710;14.492;2022-08-19T10:23:33;7.97;;;5.65;;
65469;SDS011;52067;50.710;14.492;2022-08-19T10:26:03;7.88;;;5.68;;
65469;SDS011;52067;50.710;14.492;2022-08-19T10:28:35;8.02;;;5.72;;
65469;SDS011;52067;50.710;14.492;2022-08-19T10:31:08;9.30;;;5.97;;
65469;SDS011;52067;50.710;14.492;2022-08-19T10:33:36;9.48;;;5.72;;
65469;SDS011;52067;50.710;14.492;2022-08-19T10:36:04;8.93;;;6.13;;
65469;SDS011;52067;50.710;14.492;2022-08-19T10:38:34;8.73;;;6.32;;
65469;SDS011;52067;50.710;14.492;2022-08-19T10:41:11;7.40;;;6.22;;
65469;SDS011;52067;50.710;14.492;2022-08-19T10:43:39;8.98;;;6.38;;
65469;SDS011;52067;50.710;14.492;2022-08-19T10:46:06;7.78;;;6.22;;
65469;SDS011;52067;50.710;14.492;2022-08-19T10:48:32;9.40;;;6.20;;
65469;SDS011;52067;50.710;14.492;2022-08-19T10:50:58;11.13;;;6.30;;
65469;SDS011;52067;50.710;14.492;2022-08-19T10:53:42;9.05;;;6.30;;
65469;SDS011;52067;50.710;14.492;2022-08-19T10:56:07;7.28;;;6.13;;
65469;SDS011;52067;50.710;14.492;2022-08-19T10:58:51;10.55;;;6.18;;
65469;SDS011;52067;50.710;14.492;2022-08-19T11:01:17;10.15;;;6.38;;
65469;SDS011;52067;50.710;14.492;2022-08-19T11:03:43;8.80;;;6.60;;
65469;SDS011;52067;50.710;14.492;2022-08-19T11:06:10;8.63;;;6.65;;
65469;SDS011;52067;50.710;14.492;2022-08-19T11:08:36;9.00;;;6.72;;
65469;SDS011;52067;50.710;14.492;2022-08-19T11:11:07;9.80;;;6.90;;
65469;SDS011;52067;50.710;14.492;2022-08-19T11:13:34;12.02;;;7.10;;
65469;SDS011;52067;50.710;14.492;2022-08-19T11:16:12;9.95;;;7.68;;
65469;SDS011;52067;50.710;14.492;2022-08-19T11:18:44;10.52;;;6.75;;
65469;SDS011;52067;50.710;14.492;2022-08-19T11:23:44;8.45;;;6.80;;
65469;SDS011;52067;50.710;14.492;2022-08-19T11:26:10;10.98;;;7.13;;
65469;SDS011;52067;50.710;14.492;2022-08-19T11:28:36;8.25;;;6.78;;
65469;SDS011;52067;50.710;14.492;2022-08-19T11:31:02;8.70;;;7.13;;
65469;SDS011;52067;50.710;14.492;2022-08-19T11:33:28;10.10;;;6.88;;
65469;SDS011;52067;50.710;14.492;2022-08-19T11:35:58;9.82;;;7.18;;
65469;SDS011;52067;50.710;14.492;2022-08-19T11:38:25;9.82;;;7.05;;
65469;SDS011;52067;50.710;14.492;2022-08-19T11:40:55;8.32;;;7.00;;
65469;SDS011;52067;50.710;14.492;2022-08-19T11:43:24;10.77;;;7.82;;
65469;SDS011;52067;50.710;14.492;2022-08-19T11:45:51;10.20;;;7.20;;
65469;SDS011;52067;50.710;14.492;2022-08-19T11:48:17;9.00;;;7.40;;
65469;SDS011;52067;50.710;14.492;2022-08-19T11:50:44;8.77;;;7.03;;
65469;SDS011;52067;50.710;14.492;2022-08-19T11:53:09;10.80;;;7.47;;
65469;SDS011;52067;50.710;14.492;2022-08-19T11:55:38;9.40;;;6.63;;
65469;SDS011;52067;50.710;14.492;2022-08-19T11:58:04;10.63;;;7.28;;
65469;SDS011;52067;50.710;14.492;2022-08-19T12:00:31;9.82;;;6.78;;
65469;SDS011;52067;50.710;14.492;2022-08-19T12:03:00;9.32;;;7.15;;
65469;SDS011;52067;50.710;14.492;2022-08-19T12:05:25;11.85;;;7.10;;
65469;SDS011;52067;50.710;14.492;2022-08-19T12:07:51;10.48;;;6.72;;
65469;SDS011;52067;50.710;14.492;2022-08-19T12:10:16;8.70;;;6.93;;
65469;SDS011;52067;50.710;14.492;2022-08-19T12:12:43;11.25;;;7.00;;
65469;SDS011;52067;50.710;14.492;2022-08-19T12:15:10;8.98;;;6.60;;
65469;SDS011;52067;50.710;14.492;2022-08-19T12:17:36;10.68;;;7.07;;
65469;SDS011;52067;50.710;14.492;2022-08-19T12:20:02;9.23;;;6.88;;
65469;SDS011;52067;50.710;14.492;2022-08-19T12:22:29;9.30;;;7.32;;
65469;SDS011;52067;50.710;14.492;2022-08-19T12:24:55;9.30;;;6.75;;
65469;SDS011;52067;50.710;14.492;2022-08-19T12:27:20;11.52;;;7.50;;
65469;SDS011;52067;50.710;14.492;2022-08-19T12:29:46;9.52;;;7.20;;
65469;SDS011;52067;50.710;14.492;2022-08-19T12:32:11;9.82;;;7.10;;
65469;SDS011;52067;50.710;14.492;2022-08-19T12:34:37;8.65;;;6.68;;
65469;SDS011;52067;50.710;14.492;2022-08-19T12:37:03;10.70;;;6.88;;
65469;SDS011;52067;50.710;14.492;2022-08-19T12:39:33;9.25;;;7.10;;
65469;SDS011;52067;50.710;14.492;2022-08-19T12:42:00;8.25;;;6.47;;
65469;SDS011;52067;50.710;14.492;2022-08-19T12:44:25;8.68;;;6.93;;
65469;SDS011;52067;50.710;14.492;2022-08-19T12:46:51;7.88;;;6.75;;
65469;SDS011;52067;50.710;14.492;2022-08-19T12:49:16;6.82;;;6.03;;
65469;SDS011;52067;50.710;14.492;2022-08-19T12:51:41;8.70;;;6.70;;
65469;SDS011;52067;50.710;14.492;2022-08-19T12:54:07;8.10;;;6.72;;
65469;SDS011;52067;50.710;14.492;2022-08-19T12:56:33;9.70;;;6.18;;
65469;SDS011;52067;50.710;14.492;2022-08-19T12:59:00;8.10;;;6.35;;
65469;SDS011;52067;50.710;14.492;2022-08-19T13:01:27;10.90;;;6.05;;
65469;SDS011;52067;50.710;14.492;2022-08-19T13:03:55;7.90;;;6.30;;
65469;SDS011;52067;50.710;14.492;2022-08-19T13:06:20;7.47;;;5.88;;
65469;SDS011;52067;50.710;14.492;2022-08-19T13:08:46;7.75;;;5.45;;
65469;SDS011;52067;50.710;14.492;2022-08-19T13:11:13;6.63;;;5.28;;
65469;SDS011;52067;50.710;14.492;2022-08-19T13:13:41;8.60;;;5.40;;
65469;SDS011;52067;50.710;14.492;2022-08-19T13:16:11;7.80;;;5.07;;
65469;SDS011;52067;50.710;14.492;2022-08-19T13:18:37;5.75;;;4.63;;
65469;SDS011;52067;50.710;14.492;2022-08-19T13:21:04;6.60;;;4.90;;
65469;SDS011;52067;50.710;14.492;2022-08-19T13:23:31;6.63;;;4.60;;
65469;SDS011;52067;50.710;14.492;2022-08-19T13:25:57;7.80;;;4.65;;
65469;SDS011;52067;50.710;14.492;2022-08-19T13:28:23;5.80;;;4.90;;
65469;SDS011;52067;50.710;14.492;2022-08-19T13:30:49;8.10;;;4.93;;
65469;SDS011;52067;50.710;14.492;2022-08-19T13:33:33;10.63;;;5.00;;
65469;SDS011;52067;50.710;14.492;2022-08-19T13:35:59;8.48;;;5.50;;
65469;SDS011;52067;50.710;14.492;2022-08-19T13:38:26;7.00;;;5.38;;
65469;SDS011;52067;50.710;14.492;2022-08-19T13:40:53;9.07;;;5.28;;
65469;SDS011;52067;50.710;14.492;2022-08-19T13:43:21;5.80;;;4.68;;
65469;SDS011;52067;50.710;14.492;2022-08-19T13:45:49;7.10;;;5.28;;
65469;SDS011;52067;50.710;14.492;2022-08-19T13:48:20;8.25;;;5.28;;
65469;SDS011;52067;50.710;14.492;2022-08-19T13:50:46;9.65;;;5.95;;
65469;SDS011;52067;50.710;14.492;2022-08-19T13:53:13;7.75;;;5.32;;
65469;SDS011;52067;50.710;14.492;2022-08-19T13:55:39;8.10;;;6.03;;
65469;SDS011;52067;50.710;14.492;2022-08-19T13:58:06;8.93;;;5.50;;
65469;SDS011;52067;50.710;14.492;2022-08-19T14:00:33;6.35;;;5.20;;
65469;SDS011;52067;50.710;14.492;2022-08-19T14:03:05;9.80;;;5.80;;
65469;SDS011;52067;50.710;14.492;2022-08-19T14:05:31;7.65;;;6.10;;
65469;SDS011;52067;50.710;14.492;2022-08-19T14:07:57;8.00;;;5.40;;
65469;SDS011;52067;50.710;14.492;2022-08-19T14:10:23;11.75;;;6.57;;
65469;SDS011;52067;50.710;14.492;2022-08-19T14:12:57;8.07;;;6.90;;
65469;SDS011;52067;50.710;14.492;2022-08-19T14:15:23;7.25;;;5.72;;
65469;SDS011;52067;50.710;14.492;2022-08-19T14:17:49;10.30;;;6.20;;
65469;SDS011;52067;50.710;14.492;2022-08-19T14:20:16;8.13;;;5.80;;
65469;SDS011;52067;50.710;14.492;2022-08-19T14:22:42;7.97;;;6.32;;
65469;SDS011;52067;50.710;14.492;2022-08-19T14:25:09;8.88;;;6.03;;
65469;SDS011;52067;50.710;14.492;2022-08-19T14:27:37;9.25;;;5.78;;
65469;SDS011;52067;50.710;14.492;2022-08-19T14:30:04;7.10;;;5.55;;
65469;SDS011;52067;50.710;14.492;2022-08-19T14:32:31;9.07;;;5.85;;
65469;SDS011;52067;50.710;14.492;2022-08-19T14:34:57;7.88;;;5.22;;
65469;SDS011;52067;50.710;14.492;2022-08-19T14:37:23;6.63;;;5.63;;
65469;SDS011;52067;50.710;14.492;2022-08-19T14:39:48;6.22;;;5.13;;
65469;SDS011;52067;50.710;14.492;2022-08-19T14:42:14;7.38;;;4.88;;
65469;SDS011;52067;50.710;14.492;2022-08-19T14:44:40;6.03;;;5.43;;